Time;durP1;ratioP1;P1;durP2;ratioP2;P2;SDS_P1;SDS_P2;PMS_P1;PMS_P2;Temp;Humidity;BMP_temperature;BMP_pressure;BME280_temperature;BME280_humidity;BME280_pressure;Samples;Min_cycle;Max_cycle;Signal;HPM_P1;HPM_P2
2021/10/20 00:00:26;;;;;;;9.85;6.68;;;13.70;96.70;;;;;;5121860;27;20031;-84
2021/10/20 00:02:56;;;;;;;8.20;6.40;;;13.70;96.70;;;;;;5089344;27;20077;-84
2021/10/20 00:05:24;;;;;;;12.45;7.00;;;13.60;96.70;;;;;;5124815;27;20039;-84
2021/10/20 00:07:53;;;;;;;9.63;7.57;;;13.60;96.70;;;;;;5099706;27;20067;-84
2021/10/20 00:10:21;;;;;;;10.23;7.32;;;13.60;96.70;;;;;;5104041;27;20031;-83
2021/10/20 00:12:50;;;;;;;8.85;6.53;;;13.60;96.70;;;;;;5119563;27;20043;-83
2021/10/20 00:15:21;;;;;;;9.10;7.00;;;13.50;96.70;;;;;;5086684;27;20051;-84
2021/10/20 00:17:50;;;;;;;8.85;7.00;;;13.50;96.70;;;;;;5104926;27;20047;-82
2021/10/20 00:20:25;;;;;;;11.48;6.82;;;13.50;96.70;;;;;;5089604;27;20047;-83
2021/10/20 00:22:55;;;;;;;8.48;6.93;;;13.50;96.70;;;;;;5101524;27;20115;-83
2021/10/20 00:25:28;;;;;;;9.90;7.50;;;13.50;96.70;;;;;;5122585;27;20065;-84
2021/10/20 00:27:56;;;;;;;9.85;7.25;;;13.50;96.70;;;;;;5098622;27;20035;-83
2021/10/20 00:30:26;;;;;;;7.60;6.80;;;13.40;96.70;;;;;;5117544;27;20104;-84
2021/10/20 00:32:54;;;;;;;8.10;6.88;;;13.30;96.70;;;;;;5082574;28;20160;-83
2021/10/20 00:35:24;;;;;;;8.05;6.57;;;13.40;96.70;;;;;;5103989;27;20428;-83
2021/10/20 00:37:52;;;;;;;9.30;6.35;;;13.40;96.70;;;;;;5094881;28;20054;-83
2021/10/20 00:40:20;;;;;;;8.57;6.10;;;13.30;96.70;;;;;;5099032;28;20048;-82
2021/10/20 00:42:50;;;;;;;7.82;6.20;;;13.30;96.70;;;;;;5098044;28;20039;-82
2021/10/20 00:45:18;;;;;;;9.43;7.10;;;13.30;96.70;;;;;;5098359;28;20087;-83
2021/10/20 00:47:46;;;;;;;9.95;6.90;;;13.40;96.70;;;;;;5101495;28;20035;-83
2021/10/20 00:50:15;;;;;;;10.38;6.68;;;13.30;96.70;;;;;;5101360;28;20089;-83
2021/10/20 00:52:45;;;;;;;8.35;6.75;;;13.30;96.70;;;;;;5101292;28;20059;-80
2021/10/20 00:55:14;;;;;;;7.72;6.82;;;13.40;96.70;;;;;;5084451;28;20051;-83
2021/10/20 00:57:45;;;;;;;8.13;6.40;;;13.30;96.70;;;;;;5081774;28;20044;-82
2021/10/20 01:00:15;;;;;;;8.98;6.20;;;13.30;96.70;;;;;;5101428;28;20044;-83
2021/10/20 01:02:46;;;;;;;8.85;5.90;;;13.30;96.70;;;;;;5098191;28;20043;-82
2021/10/20 01:05:16;;;;;;;8.73;5.18;;;13.20;96.70;;;;;;5100637;28;20096;-83
2021/10/20 01:07:46;;;;;;;7.47;5.20;;;13.10;96.70;;;;;;5099630;28;20032;-83
2021/10/20 01:10:15;;;;;;;7.72;5.10;;;13.20;96.70;;;;;;5101822;28;20048;-83
2021/10/20 01:12:43;;;;;;;7.38;5.00;;;13.20;96.70;;;;;;5103542;28;20032;-83
2021/10/20 01:15:14;;;;;;;5.20;4.32;;;13.20;96.70;;;;;;5082559;28;20047;-83
2021/10/20 01:17:43;;;;;;;6.13;4.20;;;13.20;96.70;;;;;;5101790;28;20248;-83
2021/10/20 01:20:11;;;;;;;5.43;4.78;;;13.20;96.70;;;;;;5085265;28;20032;-83
2021/10/20 01:22:41;;;;;;;5.00;4.30;;;13.20;96.70;;;;;;5101156;28;20109;-83
2021/10/20 01:25:10;;;;;;;6.53;5.47;;;13.20;96.70;;;;;;5098976;28;20056;-83
2021/10/20 01:27:39;;;;;;;7.53;5.50;;;13.20;96.70;;;;;;5088430;28;20052;-82
2021/10/20 01:30:08;;;;;;;7.63;6.70;;;13.20;96.70;;;;;;5103722;28;20424;-83
2021/10/20 01:32:37;;;;;;;10.85;9.05;;;13.30;96.70;;;;;;5104694;28;20066;-83
2021/10/20 01:35:06;;;;;;;10.82;9.02;;;13.20;96.70;;;;;;5103791;28;20051;-84
2021/10/20 01:37:35;;;;;;;13.55;9.77;;;13.20;96.70;;;;;;5121453;27;20057;-83
2021/10/20 01:40:07;;;;;;;12.68;9.90;;;13.20;96.70;;;;;;5124076;27;20461;-84
2021/10/20 01:42:35;;;;;;;15.30;10.45;;;13.20;96.70;;;;;;5105080;27;20077;-83
2021/10/20 01:45:07;;;;;;;15.13;10.95;;;13.20;96.70;;;;;;5124271;27;20039;-83
2021/10/20 01:47:35;;;;;;;11.68;10.30;;;13.20;96.70;;;;;;5092701;27;20508;-84
2021/10/20 01:50:06;;;;;;;16.88;11.13;;;13.20;96.70;;;;;;5091549;27;20701;-84
2021/10/20 01:52:34;;;;;;;13.95;11.45;;;13.20;96.70;;;;;;5126397;27;20134;-83
2021/10/20 01:55:05;;;;;;;12.25;10.98;;;13.20;96.70;;;;;;5088474;27;20142;-83
2021/10/20 01:57:34;;;;;;;14.45;10.70;;;13.10;96.70;;;;;;5107498;27;20489;-84
2021/10/20 02:00:03;;;;;;;12.27;10.98;;;13.10;96.70;;;;;;5102477;27;20327;-82
2021/10/20 02:02:39;;;;;;;13.65;10.93;;;13.10;96.70;;;;;;5108253;27;20299;-83
2021/10/20 02:05:08;;;;;;;12.32;10.65;;;13.10;96.70;;;;;;5107403;27;20613;-82
2021/10/20 02:07:37;;;;;;;17.85;11.50;;;13.00;96.70;;;;;;5091800;27;20051;-84
2021/10/20 02:10:08;;;;;;;13.07;10.35;;;13.00;96.70;;;;;;5119397;27;20074;-83
2021/10/20 02:12:36;;;;;;;11.57;8.88;;;12.90;96.70;;;;;;5123526;27;20050;-84
2021/10/20 02:15:06;;;;;;;11.32;8.80;;;12.90;96.70;;;;;;5105590;27;20058;-84
2021/10/20 02:17:35;;;;;;;10.38;9.02;;;12.90;96.70;;;;;;5086545;27;20107;-83
2021/10/20 02:20:07;;;;;;;10.57;9.00;;;12.90;96.70;;;;;;5126261;27;20036;-83
2021/10/20 02:22:35;;;;;;;11.38;8.45;;;12.80;96.70;;;;;;5100746;27;20067;-83
2021/10/20 02:25:07;;;;;;;13.73;9.95;;;12.80;96.70;;;;;;5105308;27;20056;-83
2021/10/20 02:27:35;;;;;;;11.63;9.10;;;12.80;96.70;;;;;;5125789;27;20508;-83
2021/10/20 02:30:06;;;;;;;12.18;9.25;;;12.80;96.70;;;;;;5109021;27;20396;-84
2021/10/20 02:32:34;;;;;;;10.00;7.65;;;12.70;96.70;;;;;;5120077;27;20039;-83
2021/10/20 02:35:04;;;;;;;8.77;6.60;;;12.80;96.70;;;;;;5120576;27;20046;-83
2021/10/20 02:37:32;;;;;;;12.25;7.45;;;12.70;96.70;;;;;;5087104;28;20056;-83
2021/10/20 02:40:00;;;;;;;9.02;7.13;;;12.80;96.70;;;;;;5092118;28;20099;-83
2021/10/20 02:42:30;;;;;;;13.10;8.15;;;12.80;96.70;;;;;;5076409;28;20040;-83
2021/10/20 02:44:58;;;;;;;10.20;8.25;;;12.80;96.70;;;;;;5075945;28;20048;-83
2021/10/20 02:47:26;;;;;;;10.45;8.23;;;12.70;96.70;;;;;;5070746;28;20045;-83
2021/10/20 02:49:54;;;;;;;9.48;7.68;;;12.70;96.70;;;;;;5080134;28;20049;-83
2021/10/20 02:52:21;;;;;;;10.23;8.07;;;12.60;96.70;;;;;;5083636;28;20048;-82
2021/10/20 02:54:49;;;;;;;9.48;7.88;;;12.60;96.70;;;;;;5075415;28;20104;-84
2021/10/20 02:57:17;;;;;;;13.85;8.82;;;12.50;96.70;;;;;;5075956;28;20071;-84
2021/10/20 02:59:47;;;;;;;10.13;8.52;;;12.40;96.70;;;;;;5079832;28;20036;-84
2021/10/20 03:02:15;;;;;;;9.77;7.78;;;12.40;96.70;;;;;;5072193;28;20044;-83
2021/10/20 03:04:43;;;;;;;9.05;7.57;;;12.40;96.70;;;;;;5084754;28;20042;-83
2021/10/20 03:07:11;;;;;;;9.95;7.93;;;12.50;96.70;;;;;;5093119;27;20069;-82
2021/10/20 03:09:39;;;;;;;8.90;7.47;;;12.50;96.70;;;;;;5077369;28;20044;-83
2021/10/20 03:12:07;;;;;;;9.65;8.48;;;12.50;96.70;;;;;;5076277;28;20127;-83
2021/10/20 03:14:35;;;;;;;10.80;8.13;;;12.50;96.70;;;;;;5075213;28;20100;-83
2021/10/20 03:17:05;;;;;;;10.02;7.57;;;12.40;96.70;;;;;;5077771;28;20557;-83
2021/10/20 03:19:33;;;;;;;10.85;7.82;;;12.40;96.70;;;;;;5083609;28;20043;-82
2021/10/20 03:22:01;;;;;;;9.13;7.32;;;12.40;96.70;;;;;;5079395;28;20058;-83
2021/10/20 03:24:29;;;;;;;7.85;6.90;;;12.50;96.70;;;;;;5080449;28;20124;-83
2021/10/20 03:26:57;;;;;;;8.45;7.10;;;12.50;96.70;;;;;;5075926;28;20169;-82
2021/10/20 03:29:25;;;;;;;8.88;7.35;;;12.50;96.70;;;;;;5095341;27;20044;-83
2021/10/20 03:31:53;;;;;;;10.30;6.93;;;12.40;96.70;;;;;;5075499;28;20044;-83
2021/10/20 03:34:22;;;;;;;9.35;7.40;;;12.30;96.70;;;;;;5080290;28;20107;-82
2021/10/20 03:36:50;;;;;;;9.15;7.90;;;12.30;96.70;;;;;;5086155;28;20150;-82
2021/10/20 03:39:18;;;;;;;9.85;8.05;;;12.30;96.70;;;;;;5099445;28;20059;-83
2021/10/20 03:41:46;;;;;;;9.82;7.47;;;12.30;96.70;;;;;;5101919;28;20055;-82
2021/10/20 03:44:14;;;;;;;8.15;6.15;;;12.30;96.70;;;;;;5101201;28;20065;-79
2021/10/20 03:46:42;;;;;;;8.52;6.10;;;12.20;96.70;;;;;;5101369;28;20408;-79
2021/10/20 03:49:10;;;;;;;8.10;5.55;;;12.20;96.70;;;;;;5098314;28;20041;-79
2021/10/20 03:51:40;;;;;;;7.25;5.88;;;12.10;96.70;;;;;;5111318;27;20040;-79
2021/10/20 03:54:08;;;;;;;10.05;5.88;;;12.20;96.70;;;;;;5082268;28;20418;-79
2021/10/20 03:56:35;;;;;;;6.28;5.18;;;12.20;96.70;;;;;;5100488;28;20100;-78
2021/10/20 03:59:03;;;;;;;8.48;5.90;;;12.10;96.70;;;;;;5082301;28;20493;-79
2021/10/20 04:01:31;;;;;;;7.78;5.38;;;12.10;96.70;;;;;;5101282;28;20063;-79
2021/10/20 04:03:59;;;;;;;7.50;5.50;;;12.10;96.70;;;;;;5080668;28;20067;-79
2021/10/20 04:06:27;;;;;;;7.38;5.18;;;12.00;96.70;;;;;;5099302;28;20465;-79
2021/10/20 04:08:57;;;;;;;5.47;4.60;;;12.00;96.70;;;;;;5096000;28;20043;-79
2021/10/20 04:11:25;;;;;;;6.40;4.60;;;12.00;96.70;;;;;;5100997;28;20035;-79
2021/10/20 04:13:53;;;;;;;8.25;4.50;;;12.10;96.70;;;;;;5098939;28;20508;-79
2021/10/20 04:16:21;;;;;;;5.93;4.90;;;12.20;96.70;;;;;;5098287;28;20051;-79
2021/10/20 04:18:49;;;;;;;6.43;5.45;;;12.10;96.70;;;;;;5094816;28;20480;-79
2021/10/20 04:21:17;;;;;;;7.28;6.05;;;12.00;96.70;;;;;;5099097;28;20044;-79
2021/10/20 04:23:45;;;;;;;7.90;6.10;;;11.90;96.70;;;;;;5095531;28;20032;-79
2021/10/20 04:26:14;;;;;;;6.15;5.50;;;11.90;96.70;;;;;;5097194;28;20123;-79
2021/10/20 04:28:42;;;;;;;6.13;5.53;;;11.80;96.70;;;;;;5099099;28;20042;-79
2021/10/20 04:31:10;;;;;;;7.95;6.28;;;11.90;96.70;;;;;;5098198;28;20054;-80
2021/10/20 04:33:38;;;;;;;8.15;5.60;;;11.90;96.70;;;;;;5096024;28;20108;-79
2021/10/20 04:36:06;;;;;;;7.78;6.00;;;11.90;96.70;;;;;;5103397;27;20142;-79
2021/10/20 04:38:34;;;;;;;9.80;6.43;;;12.00;96.70;;;;;;5103470;27;20063;-78
2021/10/20 04:41:03;;;;;;;7.28;5.47;;;12.00;96.70;;;;;;5119833;27;20035;-79
2021/10/20 04:43:32;;;;;;;9.20;5.82;;;12.00;96.70;;;;;;5083671;27;20058;-79
2021/10/20 04:46:00;;;;;;;6.72;5.68;;;12.00;96.70;;;;;;5088688;27;20043;-80
2021/10/20 04:48:28;;;;;;;8.10;6.28;;;12.00;96.70;;;;;;5083061;28;20036;-78
2021/10/20 04:50:56;;;;;;;7.63;5.95;;;12.00;96.70;;;;;;5121539;27;20035;-79
2021/10/20 04:53:24;;;;;;;9.88;6.32;;;12.10;96.70;;;;;;5118144;27;20040;-79
2021/10/20 04:55:53;;;;;;;6.68;5.35;;;12.10;96.70;;;;;;5086829;27;20054;-78
2021/10/20 04:58:21;;;;;;;8.35;5.68;;;12.00;96.70;;;;;;5118980;27;20091;-78
2021/10/20 05:00:50;;;;;;;5.15;4.60;;;12.10;96.70;;;;;;5101024;28;20093;-78
2021/10/20 05:03:18;;;;;;;6.97;5.82;;;12.10;96.70;;;;;;5098491;28;20073;-78
2021/10/20 05:05:46;;;;;;;6.88;5.63;;;12.10;96.70;;;;;;5100953;28;20063;-79
2021/10/20 05:08:14;;;;;;;7.05;5.97;;;12.10;96.70;;;;;;5120039;28;20071;-79
2021/10/20 05:10:42;;;;;;;6.75;5.80;;;12.10;96.70;;;;;;5096773;28;20573;-79
2021/10/20 05:13:10;;;;;;;8.98;5.78;;;12.00;96.70;;;;;;5082721;28;20468;-78
2021/10/20 05:15:38;;;;;;;7.22;5.43;;;12.00;96.70;;;;;;5096968;28;20143;-78
2021/10/20 05:18:09;;;;;;;7.28;5.90;;;12.00;96.70;;;;;;5115481;28;20326;-78
2021/10/20 05:20:38;;;;;;;6.28;4.53;;;11.90;96.70;;;;;;5114925;28;20059;-79
2021/10/20 05:23:06;;;;;;;6.38;5.05;;;12.00;96.70;;;;;;5086922;28;20048;-79
2021/10/20 05:25:33;;;;;;;7.57;5.25;;;12.00;96.70;;;;;;5100699;28;20077;-79
2021/10/20 05:28:01;;;;;;;9.23;5.25;;;12.00;96.70;;;;;;5103365;28;20039;-79
2021/10/20 05:30:29;;;;;;;6.97;4.85;;;11.90;96.70;;;;;;5116221;28;20280;-79
2021/10/20 05:32:57;;;;;;;7.53;4.78;;;12.00;96.70;;;;;;5101050;28;20043;-78
2021/10/20 05:35:27;;;;;;;8.52;5.00;;;12.00;96.70;;;;;;5096351;28;20500;-78
2021/10/20 05:37:55;;;;;;;8.02;4.80;;;12.00;96.70;;;;;;5095887;28;20162;-78
2021/10/20 05:40:24;;;;;;;9.02;5.07;;;12.00;96.70;;;;;;5101676;28;20043;-79
2021/10/20 05:42:52;;;;;;;9.15;5.43;;;12.00;96.70;;;;;;5121093;28;20043;-79
2021/10/20 05:45:20;;;;;;;9.43;5.85;;;11.90;96.70;;;;;;5098011;28;20502;-79
2021/10/20 05:47:49;;;;;;;8.35;5.40;;;12.00;96.70;;;;;;5101111;28;20535;-80
2021/10/20 05:50:17;;;;;;;6.72;5.07;;;12.00;96.70;;;;;;5095387;28;20378;-79
2021/10/20 05:52:46;;;;;;;8.82;5.30;;;11.90;96.70;;;;;;5083938;28;20031;-79
2021/10/20 05:55:14;;;;;;;9.77;5.63;;;11.90;96.70;;;;;;5110689;28;20047;-78
2021/10/20 05:57:42;;;;;;;9.63;7.15;;;12.00;96.70;;;;;;5096718;28;20496;-80
2021/10/20 06:00:12;;;;;;;10.55;6.72;;;12.00;96.70;;;;;;5112756;28;20120;-79
2021/10/20 06:02:40;;;;;;;9.65;6.65;;;12.00;96.70;;;;;;5102144;28;20043;-79
2021/10/20 06:05:09;;;;;;;8.98;7.35;;;12.10;96.70;;;;;;5097998;28;20404;-78
2021/10/20 06:07:42;;;;;;;7.82;6.97;;;12.00;96.70;;;;;;5120641;28;20035;-79
2021/10/20 06:10:12;;;;;;;8.63;6.07;;;12.00;96.70;;;;;;5116599;28;20035;-74
2021/10/20 06:12:41;;;;;;;9.05;6.03;;;12.00;96.70;;;;;;5121285;27;20050;-78
2021/10/20 06:15:14;;;;;;;8.98;7.05;;;12.00;96.70;;;;;;5120657;27;20065;-78
2021/10/20 06:18:02;;;;;;;10.27;8.10;;;12.00;96.70;;;;;;5118115;27;20489;-78
2021/10/20 06:20:31;;;;;;;11.00;7.53;;;11.90;96.70;;;;;;5089871;27;20111;-78
2021/10/20 06:22:58;;;;;;;12.85;8.70;;;11.90;96.70;;;;;;5104032;27;20496;-77
2021/10/20 06:25:28;;;;;;;15.57;10.10;;;12.10;96.70;;;;;;5105382;27;20496;-77
2021/10/20 06:27:56;;;;;;;13.82;9.27;;;12.10;96.70;;;;;;5103679;27;20041;-77
2021/10/20 06:30:24;;;;;;;11.32;8.82;;;12.10;96.70;;;;;;5101241;27;20059;-78
2021/10/20 06:32:52;;;;;;;12.20;8.85;;;12.10;96.70;;;;;;5120792;27;20089;-77
2021/10/20 06:35:20;;;;;;;14.18;9.05;;;12.10;96.70;;;;;;5103481;27;20038;-78
2021/10/20 06:37:52;;;;;;;15.50;9.40;;;12.10;96.70;;;;;;5093840;27;20422;-78
2021/10/20 06:40:22;;;;;;;13.38;8.13;;;12.20;96.70;;;;;;5121100;27;20071;-77
2021/10/20 06:42:52;;;;;;;10.00;6.85;;;12.20;96.70;;;;;;5119366;27;20088;-77
2021/10/20 06:45:20;;;;;;;8.02;6.65;;;12.40;96.70;;;;;;5121982;27;20069;-77
2021/10/20 06:47:48;;;;;;;15.13;7.18;;;12.40;96.70;;;;;;5120174;27;20791;-78
2021/10/20 06:50:17;;;;;;;10.88;6.43;;;12.50;96.70;;;;;;5106397;27;20407;-77
2021/10/20 06:52:45;;;;;;;8.07;6.32;;;12.50;96.70;;;;;;5118342;27;20602;-78
2021/10/20 06:55:13;;;;;;;9.48;6.93;;;12.60;96.70;;;;;;5104333;27;20128;-78
2021/10/20 06:57:41;;;;;;;7.75;6.30;;;12.70;96.70;;;;;;5121463;27;20501;-77
2021/10/20 07:00:12;;;;;;;11.73;6.60;;;12.70;96.70;;;;;;5104642;27;20032;-78
2021/10/20 07:02:40;;;;;;;6.40;5.80;;;12.80;96.70;;;;;;5100148;27;20047;-77
2021/10/20 07:05:10;;;;;;;9.27;6.53;;;12.90;96.70;;;;;;5102746;27;20050;-77
2021/10/20 07:07:39;;;;;;;10.27;6.68;;;12.90;96.70;;;;;;5101833;27;20736;-77
2021/10/20 07:10:09;;;;;;;8.02;5.95;;;12.90;96.70;;;;;;5104522;27;20040;-77
2021/10/20 07:12:37;;;;;;;9.13;6.07;;;13.00;96.70;;;;;;5086689;27;20035;-77
2021/10/20 07:15:06;;;;;;;8.70;6.60;;;13.10;96.70;;;;;;5104581;27;20424;-77
2021/10/20 07:17:36;;;;;;;8.35;6.38;;;13.00;96.70;;;;;;5117191;27;20114;-77
2021/10/20 07:20:05;;;;;;;10.48;7.05;;;13.00;96.70;;;;;;5122051;27;20032;-76
2021/10/20 07:22:38;;;;;;;10.60;6.80;;;13.10;96.70;;;;;;5120570;27;20039;-76
2021/10/20 07:25:09;;;;;;;9.50;7.53;;;13.20;96.70;;;;;;5104283;27;20035;-77
2021/10/20 07:27:37;;;;;;;8.38;6.63;;;13.20;96.70;;;;;;5117866;27;20062;-76
2021/10/20 07:30:08;;;;;;;9.32;7.25;;;13.20;96.70;;;;;;5090956;27;20043;-78
2021/10/20 07:32:41;;;;;;;9.35;7.10;;;13.20;96.70;;;;;;5121477;27;20046;-79
2021/10/20 07:35:11;;;;;;;9.52;7.32;;;13.20;96.70;;;;;;5117382;27;20404;-78
2021/10/20 07:37:40;;;;;;;9.27;7.05;;;13.20;96.70;;;;;;5118634;27;20523;-77
2021/10/20 07:40:10;;;;;;;8.85;7.50;;;13.20;96.70;;;;;;5102210;27;20047;-78
2021/10/20 07:42:39;;;;;;;9.88;7.40;;;13.20;96.70;;;;;;5122511;27;20039;-79
2021/10/20 07:45:11;;;;;;;8.82;7.43;;;13.20;96.70;;;;;;5084493;27;20066;-78
2021/10/20 07:47:40;;;;;;;12.00;8.35;;;13.20;96.70;;;;;;5095634;27;20043;-78
2021/10/20 07:50:09;;;;;;;10.02;8.07;;;13.20;96.70;;;;;;5086185;27;20509;-77
2021/10/20 07:52:37;;;;;;;12.60;7.85;;;13.20;96.70;;;;;;5122496;27;20464;-77
2021/10/20 07:55:07;;;;;;;13.60;8.55;;;13.30;96.70;;;;;;5104289;27;20051;-77
2021/10/20 07:57:35;;;;;;;10.30;7.75;;;13.30;96.70;;;;;;5117509;27;20400;-77
2021/10/20 08:00:07;;;;;;;11.05;8.00;;;13.30;96.70;;;;;;5102336;27;20043;-77
2021/10/20 08:02:35;;;;;;;9.65;7.00;;;13.40;96.70;;;;;;5104170;27;20296;-78
2021/10/20 08:05:07;;;;;;;9.77;7.18;;;13.40;96.70;;;;;;5083832;27;20038;-77
2021/10/20 08:07:35;;;;;;;11.05;7.60;;;13.50;96.70;;;;;;5122775;27;20040;-77
2021/10/20 08:10:03;;;;;;;8.65;7.13;;;13.60;96.70;;;;;;5119323;27;20138;-77
2021/10/20 08:12:32;;;;;;;11.10;6.95;;;13.70;96.70;;;;;;5104422;27;20520;-77
2021/10/20 08:15:02;;;;;;;11.02;8.18;;;13.80;96.70;;;;;;5086089;27;20063;-78
2021/10/20 08:17:30;;;;;;;10.85;6.88;;;14.00;96.70;;;;;;5120517;27;20035;-77
2021/10/20 08:19:58;;;;;;;9.02;6.97;;;14.00;96.70;;;;;;5084151;27;20039;-77
2021/10/20 08:22:28;;;;;;;8.35;7.07;;;14.20;96.70;;;;;;5123385;27;20047;-77
2021/10/20 08:24:56;;;;;;;9.63;7.45;;;14.30;96.70;;;;;;5094544;28;20039;-77
2021/10/20 08:27:24;;;;;;;8.52;7.47;;;14.30;96.70;;;;;;5120921;27;20078;-76
2021/10/20 08:29:52;;;;;;;11.80;8.30;;;14.40;96.70;;;;;;5102943;27;20420;-77
2021/10/20 08:32:20;;;;;;;10.93;8.43;;;14.50;96.70;;;;;;5082260;27;20117;-77
2021/10/20 08:34:50;;;;;;;10.82;8.48;;;14.50;96.70;;;;;;5101738;27;20513;-77
2021/10/20 08:37:18;;;;;;;13.52;8.25;;;14.70;96.70;;;;;;5112559;27;20615;-77
2021/10/20 08:39:48;;;;;;;7.93;7.13;;;14.80;96.70;;;;;;5083065;27;20047;-78
2021/10/20 08:42:16;;;;;;;11.45;7.35;;;14.90;96.70;;;;;;5095431;27;20346;-77
2021/10/20 08:45:05;;;;;;;9.40;8.10;;;14.90;96.70;;;;;;5089551;27;20044;-78
2021/10/20 08:47:34;;;;;;;11.93;7.43;;;15.00;96.70;;;;;;5113200;27;20051;-77
2021/10/20 08:50:03;;;;;;;9.38;8.15;;;15.00;96.70;;;;;;5101748;27;20043;-77
2021/10/20 08:52:31;;;;;;;9.30;7.55;;;15.10;96.70;;;;;;5098102;28;20089;-77
2021/10/20 08:55:01;;;;;;;11.88;7.90;;;15.20;96.70;;;;;;5084365;27;20043;-77
2021/10/20 08:57:29;;;;;;;8.75;7.82;;;15.20;96.70;;;;;;5120733;27;20043;-77
2021/10/20 09:00:03;;;;;;;11.05;7.35;;;15.30;96.70;;;;;;5103222;28;20039;-77
2021/10/20 09:02:36;;;;;;;10.27;7.35;;;15.50;96.70;;;;;;5115057;28;20088;-79
2021/10/20 09:05:12;;;;;;;10.68;7.65;;;15.60;96.70;;;;;;5121028;28;20444;-79
2021/10/20 09:07:41;;;;;;;11.52;8.02;;;15.70;96.70;;;;;;5100863;28;20130;-79
2021/10/20 09:10:11;;;;;;;7.50;6.38;;;15.90;96.70;;;;;;5099630;28;20038;-78
2021/10/20 09:12:40;;;;;;;8.70;6.85;;;16.00;96.70;;;;;;5097805;28;20077;-77
2021/10/20 09:15:11;;;;;;;8.52;7.32;;;16.00;96.70;;;;;;5114942;28;20071;-77
2021/10/20 09:17:44;;;;;;;11.23;7.35;;;16.10;96.70;;;;;;5099886;28;20051;-78
2021/10/20 09:20:18;;;;;;;7.32;6.63;;;16.20;96.70;;;;;;5117551;28;20050;-77
2021/10/20 09:23:02;;;;;;;9.25;6.97;;;16.30;96.70;;;;;;5118747;28;20046;-78
2021/10/20 09:25:38;;;;;;;7.05;6.35;;;16.40;96.70;;;;;;5108647;28;20043;-78
2021/10/20 09:28:08;;;;;;;9.35;6.97;;;16.40;96.70;;;;;;5085825;28;20602;-78
2021/10/20 09:30:38;;;;;;;6.85;5.93;;;16.50;96.70;;;;;;5117109;28;20118;-78
2021/10/20 09:33:07;;;;;;;8.15;5.88;;;16.60;96.70;;;;;;5101078;28;20050;-78
2021/10/20 09:35:35;;;;;;;8.05;6.18;;;16.70;96.70;;;;;;5097685;28;20045;-78
2021/10/20 09:38:04;;;;;;;7.20;6.05;;;16.80;96.70;;;;;;5081130;28;20535;-78
2021/10/20 09:40:36;;;;;;;8.45;5.93;;;17.00;96.70;;;;;;5099116;28;20039;-78
2021/10/20 09:43:10;;;;;;;;;;;17.10;96.70;;;;;;5121254;28;20575;-77
2021/10/20 09:45:40;;;;;;;6.55;5.15;;;17.20;96.70;;;;;;5118843;28;19985;-78
2021/10/20 09:48:14;;;;;;;6.15;5.43;;;17.30;96.70;;;;;;5103011;27;20501;-79
2021/10/20 09:50:58;;;;;;;7.65;6.35;;;17.40;96.70;;;;;;5120535;27;20242;-78
2021/10/20 09:53:28;;;;;;;6.53;4.80;;;17.50;96.70;;;;;;5124428;27;20428;-77
2021/10/20 09:56:01;;;;;;;5.72;5.03;;;17.60;96.70;;;;;;5098463;27;20044;-78
2021/10/20 09:58:32;;;;;;;6.35;5.20;;;17.60;96.70;;;;;;5122204;27;20046;-79
2021/10/20 10:01:01;;;;;;;6.88;5.13;;;17.60;96.70;;;;;;5116500;27;20047;-77
2021/10/20 10:03:30;;;;;;;6.65;5.60;;;17.80;96.70;;;;;;5123256;27;20054;-78
2021/10/20 10:05:59;;;;;;;9.35;5.47;;;17.90;96.70;;;;;;5124478;27;20055;-78
2021/10/20 10:08:27;;;;;;;11.68;6.40;;;18.10;96.70;;;;;;5122014;27;20121;-78
2021/10/20 10:10:56;;;;;;;7.75;6.50;;;18.20;96.70;;;;;;5106924;27;20127;-78
2021/10/20 10:13:30;;;;;;;8.35;6.45;;;18.30;96.70;;;;;;5105027;27;20048;-78
2021/10/20 10:16:00;;;;;;;9.48;5.93;;;18.40;96.70;;;;;;5104342;27;20069;-78
2021/10/20 10:18:28;;;;;;;7.75;5.95;;;18.40;96.70;;;;;;5088937;27;20611;-78
2021/10/20 10:20:56;;;;;;;7.03;5.32;;;18.60;96.70;;;;;;5089131;27;20035;-78
2021/10/20 10:23:27;;;;;;;7.85;5.78;;;18.70;96.70;;;;;;5102872;27;20504;-78
2021/10/20 10:25:59;;;;;;;9.23;6.05;;;18.80;96.70;;;;;;5120077;27;20066;-78
2021/10/20 10:28:30;;;;;;;7.95;5.93;;;18.90;96.70;;;;;;5102881;27;20077;-78
2021/10/20 10:31:03;;;;;;;8.55;5.70;;;18.90;96.70;;;;;;5119040;27;20095;-79
2021/10/20 10:33:33;;;;;;;11.88;5.85;;;19.10;96.70;;;;;;5101745;27;20416;-78
2021/10/20 10:36:13;;;;;;;11.43;6.57;;;19.30;96.70;;;;;;5098266;27;20104;-78
2021/10/20 10:38:47;;;;;;;11.98;6.43;;;19.40;96.70;;;;;;5080141;27;20043;-78
2021/10/20 10:41:34;;;;;;;8.77;6.30;;;19.40;96.70;;;;;;5105014;27;20084;-78
2021/10/20 10:44:11;;;;;;;;;;;19.40;96.70;;;;;;5096315;27;20039;-78
2021/10/20 10:46:42;;;;;;;10.32;6.10;;;19.30;96.70;;;;;;5124041;27;20430;-79
2021/10/20 10:49:29;;;;;;;8.02;6.03;;;19.40;96.70;;;;;;5105912;27;20051;-78
2021/10/20 10:52:37;;;;;;;16.48;6.85;;;19.60;96.70;;;;;;5119988;27;20507;-78
2021/10/20 10:55:10;;;;;;;11.23;6.43;;;19.70;96.70;;;;;;5103311;27;20039;-79
2021/10/20 10:57:52;;;;;;;12.85;6.22;;;19.60;96.70;;;;;;5097128;27;20588;-78
2021/10/20 11:00:34;;;;;;;8.57;6.22;;;19.40;96.70;;;;;;5097673;28;20089;-78
2021/10/20 11:03:29;;;;;;;8.60;6.18;;;19.30;96.70;;;;;;5115348;27;20493;-78
2021/10/20 11:06:00;;;;;;;8.23;6.13;;;19.20;96.70;;;;;;5085018;27;20545;-77
2021/10/20 11:08:29;;;;;;;9.65;6.03;;;19.20;96.70;;;;;;5104504;27;20043;-77
2021/10/20 11:10:58;;;;;;;10.32;6.53;;;19.10;96.70;;;;;;5101356;27;20039;-78
2021/10/20 11:13:26;;;;;;;10.63;6.10;;;19.20;96.70;;;;;;5105234;27;20039;-81
2021/10/20 11:15:56;;;;;;;7.40;6.07;;;19.20;96.70;;;;;;5104708;27;20035;-82
2021/10/20 11:18:24;;;;;;;7.57;5.93;;;19.20;96.70;;;;;;5122728;27;20035;-82
2021/10/20 11:20:55;;;;;;;9.38;5.93;;;19.20;96.70;;;;;;5123920;27;20066;-84
2021/10/20 11:23:29;;;;;;;8.05;5.95;;;19.20;96.70;;;;;;5124930;27;20049;-83
2021/10/20 11:26:00;;;;;;;10.35;6.40;;;19.40;96.70;;;;;;5104873;27;20582;-83
2021/10/20 11:28:32;;;;;;;6.20;5.13;;;19.50;96.70;;;;;;5102596;27;20043;-83
2021/10/20 11:31:07;;;;;;;;;;;19.50;96.70;;;;;;5118823;27;20111;-84
2021/10/20 11:33:35;;;;;;;8.07;5.20;;;19.40;96.70;;;;;;5098748;27;19927;-78
2021/10/20 11:36:03;;;;;;;6.35;4.80;;;19.40;96.70;;;;;;5083734;27;20043;-79
2021/10/20 11:38:34;;;;;;;7.45;5.40;;;19.50;96.70;;;;;;5101626;27;20143;-79
2021/10/20 11:41:03;;;;;;;9.05;5.10;;;19.50;96.70;;;;;;5095615;27;20500;-79
2021/10/20 11:43:45;;;;;;;5.93;4.93;;;19.60;96.70;;;;;;5103530;27;20484;-79
2021/10/20 11:46:19;;;;;;;5.32;3.97;;;19.60;96.70;;;;;;5101114;27;20039;-78
2021/10/20 11:48:48;;;;;;;5.35;3.90;;;19.50;96.70;;;;;;5122377;27;20532;-78
2021/10/20 11:51:16;;;;;;;6.30;4.25;;;19.40;96.70;;;;;;5085887;27;20334;-78
2021/10/20 11:53:47;;;;;;;6.53;4.50;;;19.50;96.70;;;;;;5103657;27;20043;-79
2021/10/20 11:56:16;;;;;;;6.45;4.57;;;19.60;96.70;;;;;;5102899;27;20096;-78
2021/10/20 11:58:46;;;;;;;7.38;4.20;;;19.70;96.70;;;;;;5122538;27;20047;-78
2021/10/20 12:01:16;;;;;;;3.65;3.00;;;19.70;96.70;;;;;;5083348;27;20071;-79
2021/10/20 12:03:45;;;;;;;4.45;3.60;;;19.70;96.70;;;;;;5097508;27;20130;-78
2021/10/20 12:06:17;;;;;;;6.07;3.72;;;19.80;96.70;;;;;;5114050;27;20122;-79
2021/10/20 12:08:47;;;;;;;3.78;2.75;;;20.10;96.70;;;;;;5120183;27;20082;-79
2021/10/20 12:11:16;;;;;;;3.80;3.13;;;20.40;96.70;;;;;;5082014;27;20560;-78
2021/10/20 12:13:45;;;;;;;4.90;3.15;;;20.60;96.70;;;;;;5102310;27;20510;-78
2021/10/20 12:16:19;;;;;;;5.75;3.50;;;20.80;96.70;;;;;;5117095;27;20043;-79
2021/10/20 12:18:49;;;;;;;5.05;3.00;;;20.90;96.70;;;;;;5101304;27;20046;-79
2021/10/20 12:21:17;;;;;;;4.60;2.80;;;20.90;96.70;;;;;;5101827;27;20116;-79
2021/10/20 12:23:47;;;;;;;4.38;3.25;;;21.00;96.70;;;;;;5117741;27;20099;-79
2021/10/20 12:26:15;;;;;;;5.03;2.80;;;21.00;96.70;;;;;;5101758;27;20066;-79
2021/10/20 12:28:47;;;;;;;3.92;2.80;;;20.90;96.70;;;;;;5102056;27;20027;-79
2021/10/20 12:31:17;;;;;;;5.38;3.75;;;21.10;96.70;;;;;;5101999;27;20104;-79
2021/10/20 12:33:47;;;;;;;4.15;3.40;;;21.30;96.70;;;;;;5097126;27;20043;-78
2021/10/20 12:36:19;;;;;;;7.00;3.95;;;21.40;96.70;;;;;;5099506;27;20051;-79
2021/10/20 12:38:48;;;;;;;5.57;3.35;;;21.50;96.70;;;;;;5099090;27;20047;-79
2021/10/20 12:41:20;;;;;;;4.03;3.22;;;21.60;96.70;;;;;;5103537;27;20047;-79
2021/10/20 12:43:50;;;;;;;2.55;2.30;;;21.50;96.70;;;;;;5115738;27;20527;-79
2021/10/20 12:46:42;;;;;;;3.83;3.00;;;21.30;96.70;;;;;;5105429;27;21473;-79
2021/10/20 12:49:11;;;;;;;4.65;2.95;;;21.30;96.70;;;;;;5101523;27;20493;-79
2021/10/20 12:51:42;;;;;;;3.88;2.60;;;21.20;96.70;;;;;;5097908;27;20496;-79
2021/10/20 12:54:30;;;;;;;2.92;2.40;;;21.10;96.70;;;;;;5100047;28;20044;-79
2021/10/20 12:56:59;;;;;;;3.25;2.60;;;21.20;96.70;;;;;;5097577;27;20035;-79